Holton, Michigan
Current Conditions -  °F | °C
As of 7:11 PM on Wednesday 26 Nov 2014 (Local Time) from KFFX Reporting Station
Overcast Overcast  
Wind Chill: 28°   Ceiling: 3300
Heat Index: 28°   Visibility: 10mi
Dew Point: 23°   Wind: 0mph
Humidity: 80%   Direction: NA
Pressure: 30.12"   Gusts: NA
Location:  43.41°N, 86.08°W
Report Text: KFFX 270011Z AUTO 00000KT 10SM SCT022 OVC033 M02/M05 A3012 RMK AO2 T10201050
Loading
Personal Weather Stations






























Interactive Weather Map New forecast layout! Learn more

10-Day Weather Forecast

Advertisements
Track Severe Weather on mobile